createdAt,value
2018-12-20T00:09:47.999Z,45.90
2018-12-20T00:19:50.557Z,40.80
2018-12-20T00:29:53.185Z,43.17
2018-12-20T00:39:55.867Z,37.97
2018-12-20T00:49:58.586Z,36.23
2018-12-20T01:00:01.047Z,33.97
2018-12-20T01:10:04.819Z,36.33
2018-12-20T01:20:08.425Z,32.60
2018-12-20T01:30:11.100Z,35.83
2018-12-20T01:40:13.644Z,35.70
2018-12-20T01:50:16.195Z,37.00
2018-12-20T02:00:18.762Z,35.03
2018-12-20T02:10:21.289Z,38.60
2018-12-20T02:20:23.788Z,38.50
2018-12-20T02:30:26.696Z,32.57
2018-12-20T02:40:29.799Z,39.30
2018-12-20T02:50:32.329Z,35.70
2018-12-20T03:00:34.844Z,36.83
2018-12-20T03:10:37.552Z,39.30
2018-12-20T03:20:40.113Z,38.47
2018-12-20T03:30:42.582Z,34.80
2018-12-20T03:40:45.058Z,31.83
2018-12-20T03:50:47.518Z,34.97
2018-12-20T04:00:50.192Z,33.30
2018-12-20T04:10:52.764Z,34.53
2018-12-20T04:20:55.343Z,34.97
2018-12-20T04:30:57.879Z,36.93
2018-12-20T04:41:00.384Z,33.23
2018-12-20T04:51:02.955Z,31.27
2018-12-20T05:01:05.606Z,30.03
2018-12-20T05:11:08.176Z,35.50
2018-12-20T05:21:10.637Z,32.90
2018-12-20T05:31:13.113Z,34.37
2018-12-20T05:41:15.637Z,31.90
2018-12-20T05:51:18.381Z,34.60
2018-12-20T06:01:20.935Z,32.77
2018-12-20T06:11:23.500Z,32.93
2018-12-20T06:21:26.047Z,31.57
2018-12-20T06:31:28.518Z,33.80
2018-12-20T06:41:31.003Z,31.17
2018-12-20T06:51:33.544Z,33.17
2018-12-20T07:01:37.106Z,32.70
2018-12-20T07:11:43.469Z,31.90
2018-12-20T07:21:46.010Z,20.50
2018-12-20T07:31:48.618Z,10.87
2018-12-20T07:41:51.108Z,11.07
2018-12-20T07:51:53.773Z,10.00
2018-12-20T08:01:56.372Z,8.67
2018-12-20T08:11:58.930Z,7.63
2018-12-20T08:22:02.393Z,9.10
2018-12-20T08:32:06.399Z,5.93
2018-12-20T08:42:09.612Z,6.47
2018-12-20T08:52:12.084Z,6.23
2018-12-20T09:02:14.787Z,6.10
2018-12-20T09:12:17.466Z,4.50
2018-12-20T09:22:19.963Z,6.70
2018-12-20T09:32:22.798Z,5.77
2018-12-20T09:42:25.317Z,6.87
2018-12-20T09:52:27.782Z,5.50
2018-12-20T10:02:30.231Z,6.43
2018-12-20T10:12:32.690Z,5.50
2018-12-20T10:22:35.167Z,5.60
2018-12-20T10:32:37.628Z,4.37
2018-12-20T10:42:40.085Z,5.77
2018-12-20T10:52:42.544Z,4.07
2018-12-20T11:02:50.743Z,5.83
2018-12-20T11:12:53.227Z,3.13
2018-12-20T11:22:55.747Z,3.87
2018-12-20T11:32:59.634Z,3.37
2018-12-20T11:43:02.384Z,5.07
2018-12-20T11:53:04.838Z,2.47
2018-12-20T12:03:07.302Z,3.20
2018-12-20T12:13:09.975Z,2.47
2018-12-20T12:23:12.423Z,3.57
2018-12-20T12:33:14.908Z,3.00
2018-12-20T12:43:17.575Z,3.27
2018-12-20T12:53:20.298Z,3.13
2018-12-20T13:03:22.763Z,2.97
2018-12-20T13:13:25.512Z,2.63
2018-12-20T13:23:28.030Z,4.53
2018-12-20T13:33:30.566Z,3.90
2018-12-20T13:43:33.083Z,1.73
2018-12-20T13:53:35.536Z,2.33
2018-12-20T14:03:38.163Z,4.67
2018-12-20T14:13:40.604Z,2.20
2018-12-20T14:23:43.071Z,5.43
2018-12-20T14:33:46.141Z,2.30
2018-12-20T14:43:48.751Z,4.07
2018-12-20T14:53:51.212Z,3.63
2018-12-20T15:03:53.659Z,2.80
2018-12-20T15:13:56.324Z,3.03
2018-12-20T15:23:58.900Z,4.63
2018-12-20T15:34:01.365Z,8.60
2018-12-20T15:44:03.907Z,3.87
2018-12-20T15:54:06.471Z,5.50
2018-12-20T16:04:09.024Z,4.20
2018-12-20T16:14:11.475Z,5.67
2018-12-20T16:24:13.992Z,6.13
2018-12-20T16:34:16.467Z,7.17
2018-12-20T16:44:20.020Z,7.70
2018-12-20T16:54:22.475Z,6.50
2018-12-20T17:04:24.934Z,6.67
2018-12-20T17:14:27.483Z,4.83
2018-12-20T17:24:29.940Z,8.57
2018-12-20T17:34:32.407Z,3.83
2018-12-20T17:44:34.880Z,6.60
2018-12-20T17:54:37.384Z,6.53
2018-12-20T18:04:39.907Z,4.67
2018-12-20T18:14:42.366Z,7.60
2018-12-20T18:24:44.830Z,5.03
2018-12-20T18:34:49.380Z,5.13
2018-12-20T18:44:51.934Z,7.60
2018-12-20T18:54:54.595Z,8.97
2018-12-20T19:04:57.043Z,4.87
2018-12-20T19:14:59.500Z,6.43
2018-12-20T19:25:01.957Z,4.27
2018-12-20T19:35:05.664Z,3.33
2018-12-20T19:45:08.221Z,7.97
2018-12-20T19:55:10.820Z,4.67
2018-12-20T20:05:13.327Z,6.97
2018-12-20T20:15:16.801Z,4.93
2018-12-20T20:25:19.457Z,5.63
2018-12-20T20:35:22.204Z,6.53
2018-12-20T20:45:24.676Z,8.40
2018-12-20T20:55:27.148Z,5.20
2018-12-20T21:05:29.792Z,9.77
2018-12-20T21:15:32.255Z,5.97
2018-12-20T21:25:36.378Z,5.75
2018-12-20T21:35:39.081Z,5.23
2018-12-20T21:45:41.556Z,6.57
2018-12-20T21:55:44.012Z,6.57
2018-12-20T22:05:46.467Z,5.70
2018-12-20T22:15:48.918Z,5.10
2018-12-20T22:25:51.380Z,6.77
2018-12-20T22:35:53.829Z,4.03
2018-12-20T22:45:56.287Z,6.03
2018-12-20T22:55:58.745Z,4.67
2018-12-20T23:06:01.497Z,4.60
2018-12-20T23:16:04.325Z,4.10
2018-12-20T23:26:06.999Z,4.10
2018-12-20T23:36:09.803Z,4.33
2018-12-20T23:46:12.532Z,5.10
2018-12-20T23:56:15.105Z,3.63
